Time;durP1;ratioP1;P1;durP2;ratioP2;P2;SDS_P1;SDS_P2;PMS_P1;PMS_P2;Temp;Humidity;BMP_temperature;BMP_pressure;BME280_temperature;BME280_humidity;BME280_pressure;Samples;Min_cycle;Max_cycle;Signal;HPM_P1;HPM_P2
2022/09/14 00:01:39;;;;;;;5.85;5.25;;;16.70;99.90;;;;;;8250248;28;20081;-81
2022/09/14 00:05:40;;;;;;;8.45;5.60;;;16.60;99.90;;;;;;8249828;28;20026;-80
2022/09/14 00:09:40;;;;;;;7.43;5.70;;;16.70;99.90;;;;;;8250280;28;20034;-81
2022/09/14 00:13:43;;;;;;;5.80;5.30;;;16.70;99.90;;;;;;8271046;28;20122;-81
2022/09/14 00:17:44;;;;;;;7.18;6.03;;;16.60;99.90;;;;;;8249365;28;20046;-81
2022/09/14 00:21:45;;;;;;;6.28;5.68;;;16.60;99.90;;;;;;8267024;28;20030;-80
2022/09/14 00:25:45;;;;;;;10.93;5.65;;;16.60;99.90;;;;;;8249675;28;20369;-82
2022/09/14 00:29:47;;;;;;;7.28;6.30;;;16.60;99.90;;;;;;8249796;28;20081;-81
2022/09/14 00:33:49;;;;;;;7.05;5.63;;;16.50;99.90;;;;;;8267430;28;20019;-81
2022/09/14 00:37:50;;;;;;;7.15;5.35;;;16.60;99.90;;;;;;8249539;28;20022;-81
2022/09/14 00:41:51;;;;;;;7.88;5.55;;;16.50;99.90;;;;;;8260696;28;20037;-81
2022/09/14 00:45:52;;;;;;;6.45;5.15;;;16.50;99.90;;;;;;8253133;28;20026;-81
2022/09/14 00:49:53;;;;;;;6.93;5.57;;;16.60;99.90;;;;;;8252584;28;20050;-81
2022/09/14 00:53:54;;;;;;;7.45;5.93;;;16.60;99.90;;;;;;8249121;28;20444;-81
2022/09/14 00:57:55;;;;;;;9.93;6.00;;;16.50;99.90;;;;;;8269642;28;20523;-81
2022/09/14 01:01:55;;;;;;;9.50;5.35;;;16.60;99.90;;;;;;8252069;28;20030;-80
2022/09/14 01:06:03;;;;;;;5.65;5.13;;;16.50;99.90;;;;;;8248560;28;20026;-81
2022/09/14 01:10:37;;;;;;;7.45;5.78;;;16.50;99.90;;;;;;8265105;28;20396;-81
2022/09/14 01:15:03;;;;;;;6.03;5.15;;;16.50;99.90;;;;;;8265181;28;20415;-82
2022/09/14 01:19:15;;;;;;;7.25;5.65;;;16.50;99.90;;;;;;8254445;28;20148;-80
2022/09/14 01:23:46;;;;;;;6.15;5.45;;;16.50;99.90;;;;;;8248133;28;20411;-81
2022/09/14 01:27:50;;;;;;;7.15;5.43;;;16.50;99.90;;;;;;8247509;28;20065;-81
2022/09/14 01:31:59;;;;;;;6.80;5.53;;;16.50;99.90;;;;;;8255393;28;20030;-81
2022/09/14 01:36:03;;;;;;;6.40;5.63;;;16.50;99.90;;;;;;8247799;28;20042;-81
2022/09/14 01:40:11;;;;;;;7.05;5.47;;;16.60;99.90;;;;;;8249494;28;20022;-81
2022/09/14 01:44:17;;;;;;;10.25;5.53;;;16.60;99.90;;;;;;8248862;28;20034;-81
2022/09/14 01:48:23;;;;;;;8.50;5.18;;;16.60;99.90;;;;;;8274152;28;20038;-81
2022/09/14 01:52:29;;;;;;;8.02;4.90;;;16.80;99.90;;;;;;8247235;28;20419;-80
2022/09/14 01:56:37;;;;;;;5.68;4.70;;;17.10;99.90;;;;;;8246820;28;20484;-80
2022/09/14 02:00:42;;;;;;;5.90;5.32;;;17.30;99.90;;;;;;8246924;28;20173;-81
2022/09/14 02:04:49;;;;;;;6.00;5.30;;;16.90;99.90;;;;;;8263123;28;20022;-81
2022/09/14 02:08:51;;;;;;;5.80;5.18;;;16.80;99.90;;;;;;8246382;28;20026;-80
2022/09/14 02:12:53;;;;;;;9.00;5.05;;;16.70;99.90;;;;;;8246134;28;20053;-81
2022/09/14 02:16:54;;;;;;;7.68;6.15;;;16.60;99.90;;;;;;8262829;28;20097;-81
2022/09/14 02:21:02;;;;;;;7.35;5.25;;;16.60;99.90;;;;;;8244750;28;20073;-81
2022/09/14 02:25:03;;;;;;;5.70;5.18;;;16.60;99.90;;;;;;8243061;28;20445;-80
2022/09/14 02:29:04;;;;;;;6.45;5.10;;;16.70;99.90;;;;;;8282573;28;20095;-80
2022/09/14 02:33:34;;;;;;;6.63;4.38;;;16.80;99.90;;;;;;8263053;28;20102;-81
2022/09/14 02:38:05;;;;;;;4.45;3.67;;;17.00;99.90;;;;;;8242598;28;20014;-81
2022/09/14 02:42:25;;;;;;;5.90;2.97;;;17.30;99.90;;;;;;8259870;28;20090;-81
2022/09/14 02:46:54;;;;;;;3.28;2.97;;;17.50;99.90;;;;;;8261732;28;20519;-82
2022/09/14 02:51:15;;;;;;;3.00;2.65;;;17.90;99.90;;;;;;8270240;28;20492;-81
2022/09/14 02:55:20;;;;;;;3.90;2.50;;;18.20;99.90;;;;;;8261493;28;20022;-81
2022/09/14 02:59:20;;;;;;;4.15;2.40;;;18.30;99.90;;;;;;8252449;28;20566;-81
2022/09/14 03:03:21;;;;;;;4.05;2.47;;;18.50;99.90;;;;;;8251984;28;20050;-81
2022/09/14 03:07:21;;;;;;;3.58;2.63;;;18.50;99.90;;;;;;8262222;28;20373;-81
2022/09/14 03:11:22;;;;;;;3.03;2.70;;;18.50;99.90;;;;;;8244314;28;20023;-80
2022/09/14 03:15:23;;;;;;;3.58;2.80;;;18.50;99.90;;;;;;8265124;28;20029;-80
2022/09/14 03:19:23;;;;;;;5.10;2.72;;;18.30;99.90;;;;;;8261785;28;20053;-80
2022/09/14 03:23:24;;;;;;;3.65;2.50;;;18.30;99.90;;;;;;8261607;28;20027;-80
2022/09/14 03:27:24;;;;;;;3.50;2.75;;;18.40;99.90;;;;;;8243578;28;20118;-80
2022/09/14 03:31:26;;;;;;;5.72;3.03;;;18.40;99.90;;;;;;8251593;28;20042;-80
2022/09/14 03:35:30;;;;;;;7.38;3.28;;;18.50;99.90;;;;;;8263403;28;20575;-80
2022/09/14 03:39:31;;;;;;;5.95;3.42;;;18.40;99.90;;;;;;8243874;28;20018;-80
2022/09/14 03:43:32;;;;;;;7.72;3.33;;;18.20;99.90;;;;;;8251195;28;20042;-81
2022/09/14 03:47:33;;;;;;;5.03;3.60;;;18.00;99.90;;;;;;8243646;28;20056;-80
2022/09/14 03:51:33;;;;;;;4.32;2.90;;;17.90;99.90;;;;;;8246940;28;20026;-80
2022/09/14 03:55:34;;;;;;;3.53;2.90;;;18.00;99.90;;;;;;8263607;28;20053;-81
2022/09/14 03:59:35;;;;;;;4.22;2.70;;;18.10;99.90;;;;;;8253266;28;20037;-80
2022/09/14 04:03:36;;;;;;;3.22;2.60;;;18.10;99.90;;;;;;8240040;28;20049;-80
2022/09/14 04:07:36;;;;;;;6.18;3.10;;;18.20;99.90;;;;;;8242559;28;20641;-80
2022/09/14 04:11:37;;;;;;;6.13;2.75;;;18.30;99.90;;;;;;8240760;28;20031;-80
2022/09/14 04:15:37;;;;;;;4.72;2.60;;;18.20;99.90;;;;;;8261835;28;20034;-80
2022/09/14 04:19:41;;;;;;;6.22;2.75;;;18.20;99.90;;;;;;8264086;28;20087;-81
2022/09/14 04:23:41;;;;;;;2.92;2.60;;;18.30;99.90;;;;;;8244391;28;20026;-81
2022/09/14 04:27:42;;;;;;;4.85;2.88;;;18.40;99.90;;;;;;8262881;23;21695;-93
2022/09/14 04:31:42;;;;;;;8.57;2.83;;;18.30;99.90;;;;;;8291590;28;20053;-93
2022/09/14 04:35:43;;;;;;;3.35;2.55;;;18.50;99.90;;;;;;8286520;28;20076;-92
2022/09/14 04:39:43;;;;;;;3.22;2.53;;;18.70;99.90;;;;;;8294438;28;20057;-93
2022/09/14 04:43:45;;;;;;;7.55;2.90;;;18.80;99.90;;;;;;8302330;23;20046;-82
2022/09/14 04:47:46;;;;;;;3.08;2.63;;;18.80;99.90;;;;;;8254645;28;20056;-83
2022/09/14 04:51:47;;;;;;;5.63;2.90;;;18.90;99.90;;;;;;8257930;28;20050;-81
2022/09/14 04:55:47;;;;;;;7.28;2.60;;;19.00;99.90;;;;;;8258613;28;20022;-82
2022/09/14 04:59:48;;;;;;;3.78;2.40;;;19.00;99.90;;;;;;8260472;28;20474;-82
2022/09/14 05:03:49;;;;;;;3.35;2.40;;;19.10;99.90;;;;;;8260973;28;20026;-81
2022/09/14 05:07:50;;;;;;;2.80;2.10;;;19.20;99.90;;;;;;8268513;28;20034;-83
2022/09/14 05:11:51;;;;;;;3.47;2.03;;;19.20;99.90;;;;;;8283839;28;20543;-81
2022/09/14 05:15:52;;;;;;;2.97;2.10;;;19.30;99.90;;;;;;8262539;28;20040;-81
2022/09/14 05:19:52;;;;;;;4.60;2.30;;;19.40;99.90;;;;;;8264081;28;20027;-81
2022/09/14 05:23:59;;;;;;;4.78;2.50;;;19.30;99.90;;;;;;8263476;28;20491;-81
2022/09/14 05:27:59;;;;;;;3.38;2.53;;;19.30;99.90;;;;;;8264904;28;20022;-80
2022/09/14 05:32:00;;;;;;;4.50;2.40;;;19.30;99.90;;;;;;8264584;28;20421;-81
2022/09/14 05:36:03;;;;;;;5.53;2.75;;;19.00;99.90;;;;;;8260072;28;20030;-81
2022/09/14 05:40:05;;;;;;;6.13;2.50;;;18.80;99.90;;;;;;8262330;28;20022;-81
2022/09/14 05:44:06;;;;;;;3.70;2.25;;;18.70;99.90;;;;;;8263289;28;20037;-80
2022/09/14 05:48:06;;;;;;;6.13;2.45;;;18.70;99.90;;;;;;8262451;28;20021;-81
2022/09/14 05:52:07;;;;;;;6.45;3.10;;;18.60;99.90;;;;;;8265137;28;20089;-81
2022/09/14 05:56:12;;;;;;;7.00;3.10;;;18.60;99.90;;;;;;8264539;28;20164;-80
2022/09/14 06:00:14;;;;;;;6.68;3.03;;;18.60;99.90;;;;;;8262439;28;20512;-81
2022/09/14 06:04:14;;;;;;;3.28;2.78;;;18.60;99.90;;;;;;8262985;28;20104;-81
2022/09/14 06:08:15;;;;;;;5.05;2.78;;;18.60;99.90;;;;;;8264338;28;20062;-82
2022/09/14 06:12:15;;;;;;;4.28;2.55;;;18.70;99.90;;;;;;8262948;28;20022;-82
2022/09/14 06:16:19;;;;;;;4.13;3.13;;;18.80;99.90;;;;;;8261351;28;20053;-82
2022/09/14 06:20:19;;;;;;;8.85;2.47;;;19.10;99.90;;;;;;8263022;28;20022;-81
2022/09/14 06:24:20;;;;;;;4.63;2.75;;;19.30;99.90;;;;;;8263021;28;20510;-81
2022/09/14 06:28:22;;;;;;;3.35;2.22;;;19.50;99.90;;;;;;8263165;28;20069;-80
2022/09/14 06:32:22;;;;;;;6.43;2.42;;;19.60;99.90;;;;;;8262953;28;20380;-81
2022/09/14 06:36:25;;;;;;;6.40;2.75;;;19.80;99.90;;;;;;8269743;28;20022;-81
2022/09/14 06:40:26;;;;;;;6.32;2.60;;;20.00;99.90;;;;;;8259897;28;20026;-82
2022/09/14 06:44:27;;;;;;;3.03;2.53;;;20.10;99.90;;;;;;8264378;28;20037;-81
2022/09/14 06:48:30;;;;;;;5.43;2.72;;;20.40;99.90;;;;;;8263957;28;20028;-82
2022/09/14 06:52:30;;;;;;;2.90;2.45;;;20.30;99.90;;;;;;8264113;28;20090;-82
2022/09/14 06:56:36;;;;;;;4.65;2.75;;;20.40;99.90;;;;;;8264716;28;20018;-83
2022/09/14 07:00:37;;;;;;;3.53;2.30;;;20.60;99.90;;;;;;8262667;28;20070;-82
2022/09/14 07:04:38;;;;;;;6.60;2.72;;;20.60;99.90;;;;;;8262832;28;20480;-83
2022/09/14 07:08:39;;;;;;;4.15;2.20;;;20.80;99.90;;;;;;8259042;28;20034;-83
2022/09/14 07:12:40;;;;;;;4.00;2.47;;;20.90;99.90;;;;;;8255652;28;20419;-82
2022/09/14 07:16:40;;;;;;;4.82;2.83;;;21.20;99.90;;;;;;8254067;28;20030;-82
2022/09/14 07:20:41;;;;;;;7.03;2.55;;;21.40;99.90;;;;;;8263859;28;20077;-82
2022/09/14 07:24:41;;;;;;;3.33;2.33;;;21.50;99.90;;;;;;8261503;28;20026;-82
2022/09/14 07:28:43;;;;;;;2.72;2.50;;;21.70;99.90;;;;;;8261846;28;20069;-82
2022/09/14 07:32:44;;;;;;;4.85;2.30;;;22.00;99.90;;;;;;8263342;28;20029;-82
2022/09/14 07:36:45;;;;;;;4.60;2.13;;;22.20;99.90;;;;;;8263460;28;20039;-82
2022/09/14 07:40:46;;;;;;;4.60;1.92;;;22.40;99.90;;;;;;8262678;28;20038;-81
2022/09/14 07:44:46;;;;;;;3.85;2.10;;;22.60;99.90;;;;;;8262895;28;20557;-83
2022/09/14 07:48:47;;;;;;;4.45;2.00;;;23.00;99.90;;;;;;8265049;28;20018;-82
2022/09/14 07:52:50;;;;;;;2.53;2.00;;;23.20;99.90;;;;;;8259961;28;20117;-82
2022/09/14 07:56:50;;;;;;;4.63;2.15;;;23.40;99.90;;;;;;8263084;28;20068;-82
2022/09/14 08:00:51;;;;;;;7.22;2.33;;;23.70;99.90;;;;;;8263525;28;20030;-82
2022/09/14 08:04:52;;;;;;;3.95;2.20;;;23.60;99.90;;;;;;8262252;28;20042;-81
2022/09/14 08:08:54;;;;;;;4.63;2.55;;;23.50;99.90;;;;;;8262590;28;20568;-82
2022/09/14 08:12:55;;;;;;;4.40;1.85;;;23.50;99.90;;;;;;8260750;28;20030;-83
2022/09/14 08:16:56;;;;;;;4.47;2.10;;;23.30;99.90;;;;;;8264512;28;20060;-83
2022/09/14 08:21:05;;;;;;;6.10;2.00;;;23.40;99.90;;;;;;8268316;28;20030;-82
2022/09/14 08:25:06;;;;;;;4.38;2.22;;;23.60;99.90;;;;;;8273809;28;20971;-82
2022/09/14 08:29:07;;;;;;;3.33;1.90;;;23.70;99.90;;;;;;8271659;28;20045;-81
2022/09/14 08:33:08;;;;;;;4.13;1.60;;;23.80;99.90;;;;;;8270132;28;20019;-83
2022/09/14 08:37:09;;;;;;;3.20;2.05;;;24.10;99.90;;;;;;8274004;28;20050;-82
2022/09/14 08:41:28;;;;;;;3.60;2.25;;;24.30;99.90;;;;;;8287956;28;20093;-82
2022/09/14 08:45:28;;;;;;;4.25;2.05;;;24.30;99.90;;;;;;8262997;28;21172;-82
2022/09/14 08:49:40;;;;;;;3.85;2.00;;;24.40;99.90;;;;;;8265456;28;20026;-82
2022/09/14 08:53:41;;;;;;;2.28;1.88;;;24.30;99.90;;;;;;8260232;28;20031;-82
2022/09/14 08:57:47;;;;;;;3.45;1.88;;;24.40;99.90;;;;;;8266708;28;20599;-82
2022/09/14 09:02:19;;;;;;;3.70;2.05;;;24.80;99.90;;;;;;8263649;28;20027;-82
2022/09/14 09:06:46;;;;;;;;;;;25.10;99.90;;;;;;8262223;28;20093;-82
2022/09/14 09:10:48;;;;;;;2.88;1.92;;;25.20;99.90;;;;;;8250539;28;20380;-82
2022/09/14 09:14:53;;;;;;;5.85;2.33;;;25.70;99.90;;;;;;8265128;28;20019;-82
2022/09/14 09:19:06;;;;;;;4.22;1.98;;;25.70;99.90;;;;;;8265193;28;20096;-81
2022/09/14 09:23:17;;;;;;;2.38;1.73;;;26.50;99.90;;;;;;8265409;28;20077;-83
2022/09/14 09:27:18;;;;;;;2.33;1.80;;;27.20;99.90;;;;;;8267997;28;20068;-82
2022/09/14 09:31:26;;;;;;;4.55;2.05;;;27.40;99.90;;;;;;8261674;28;20030;-82
2022/09/14 09:35:27;;;;;;;2.17;1.67;;;26.90;99.90;;;;;;8267694;28;20050;-82
2022/09/14 09:39:30;;;;;;;8.77;2.10;;;26.70;99.90;;;;;;8265413;28;20481;-82
2022/09/14 09:43:30;;;;;;;3.92;1.75;;;26.50;99.90;;;;;;8265802;28;20037;-82
2022/09/14 09:47:35;;;;;;;3.88;1.77;;;26.30;99.90;;;;;;8265092;28;20022;-83
2022/09/14 09:51:36;;;;;;;3.50;1.50;;;26.30;99.90;;;;;;8265162;28;20031;-83
2022/09/14 09:55:38;;;;;;;3.97;1.92;;;25.90;99.90;;;;;;8265681;28;20089;-83
2022/09/14 09:59:43;;;;;;;7.03;2.60;;;25.70;99.90;;;;;;8264487;28;20026;-83
2022/09/14 10:03:58;;;;;;;2.95;2.10;;;25.80;99.90;;;;;;8260407;28;20496;-82
2022/09/14 10:08:05;;;;;;;2.65;2.13;;;26.20;99.90;;;;;;8263627;28;20027;-81
2022/09/14 10:12:05;;;;;;;3.17;1.90;;;26.60;99.90;;;;;;8261326;28;20444;-82
2022/09/14 10:16:16;;;;;;;3.97;1.95;;;26.90;99.90;;;;;;8261308;28;20034;-82
2022/09/14 10:20:22;;;;;;;4.50;2.00;;;27.30;99.90;;;;;;8264997;28;20033;-82
2022/09/14 10:24:22;;;;;;;2.78;2.03;;;26.90;99.90;;;;;;8265284;28;20022;-82
2022/09/14 10:28:31;;;;;;;3.17;2.10;;;26.50;99.90;;;;;;8262301;28;20018;-82
2022/09/14 10:32:33;;;;;;;2.60;2.00;;;26.50;99.90;;;;;;8263349;28;20064;-81
2022/09/14 10:36:46;;;;;;;3.95;2.10;;;26.70;99.90;;;;;;8265374;28;20027;-82
2022/09/14 10:40:56;;;;;;;4.40;1.85;;;26.70;99.90;;;;;;8302592;23;20046;-82
2022/09/14 10:45:13;;;;;;;;;;;27.20;99.90;;;;;;8303703;28;20412;-81
2022/09/14 10:49:20;;;;;;;3.38;1.77;;;27.80;99.90;;;;;;8296716;28;19912;-83
2022/09/14 10:53:23;;;;;;;4.25;2.47;;;28.30;99.90;;;;;;8291731;28;20061;-83
2022/09/14 10:57:44;;;;;;;3.38;1.98;;;28.70;99.90;;;;;;8293280;28;20018;-83
2022/09/14 11:02:21;;;;;;;4.55;2.15;;;28.20;99.90;;;;;;8291438;28;20092;-82
2022/09/14 11:06:39;;;;;;;2.95;1.50;;;28.00;99.90;;;;;;8288087;28;20061;-82
2022/09/14 11:11:03;;;;;;;7.90;1.80;;;28.20;99.90;;;;;;8292782;28;20697;-82
2022/09/14 11:15:19;;;;;;;2.80;1.70;;;28.40;99.90;;;;;;8287976;28;20581;-82
2022/09/14 11:19:54;;;;;;;3.72;2.10;;;28.40;99.90;;;;;;8293197;28;20053;-83
2022/09/14 11:24:13;;;;;;;2.40;1.98;;;28.10;99.90;;;;;;8296953;28;20327;-83
2022/09/14 11:28:22;;;;;;;7.38;2.20;;;28.00;99.90;;;;;;8293523;28;20033;-83
2022/09/14 11:32:38;;;;;;;4.50;2.37;;;27.90;99.90;;;;;;8302255;28;20025;-83
2022/09/14 11:36:43;;;;;;;7.25;2.08;;;28.00;99.90;;;;;;8293306;28;20084;-82
2022/09/14 11:41:15;;;;;;;4.22;2.35;;;27.60;99.90;;;;;;8300883;28;20612;-82
2022/09/14 11:45:22;;;;;;;4.57;2.20;;;27.20;99.90;;;;;;8291664;28;20033;-81
2022/09/14 11:49:41;;;;;;;2.22;1.70;;;26.60;99.90;;;;;;8301143;28;20038;-83
2022/09/14 11:53:43;;;;;;;2.45;1.70;;;26.60;99.90;;;;;;8298887;28;20060;-82
2022/09/14 11:57:47;;;;;;;3.72;2.00;;;26.80;99.90;;;;;;8301408;28;20053;-82
2022/09/14 12:01:47;;;;;;;3.97;1.88;;;26.30;99.90;;;;;;8304187;28;20026;-81
2022/09/14 12:05:49;;;;;;;2.97;1.80;;;26.10;99.90;;;;;;8299328;28;20032;-81
2022/09/14 12:09:50;;;;;;;3.42;1.73;;;26.90;99.90;;;;;;8298740;28;20030;-82
2022/09/14 12:14:25;;;;;;;4.97;1.75;;;28.00;99.90;;;;;;8315841;28;20069;-82
2022/09/14 12:18:26;;;;;;;3.10;1.80;;;28.50;99.90;;;;;;8279982;28;20034;-82
2022/09/14 12:22:36;;;;;;;4.00;1.75;;;27.90;99.90;;;;;;8290108;28;20033;-81
2022/09/14 12:26:37;;;;;;;4.32;1.52;;;27.30;99.90;;;;;;8296209;28;20294;-81
2022/09/14 12:30:38;;;;;;;3.72;1.67;;;26.60;99.90;;;;;;8296472;28;20110;-82
2022/09/14 12:34:39;;;;;;;3.88;1.90;;;26.40;99.90;;;;;;8297050;28;20029;-82
2022/09/14 12:38:50;;;;;;;3.08;1.73;;;26.20;99.90;;;;;;8298644;28;20393;-81
2022/09/14 12:42:51;;;;;;;3.58;1.75;;;26.00;99.90;;;;;;8296103;28;20505;-81
2022/09/14 12:46:53;;;;;;;5.47;1.88;;;25.80;99.90;;;;;;8296855;28;20033;-81
2022/09/14 12:50:54;;;;;;;4.13;2.00;;;26.50;99.90;;;;;;8296505;28;20493;-81
2022/09/14 12:55:09;;;;;;;4.00;1.70;;;28.90;99.90;;;;;;8314529;28;20037;-82
2022/09/14 12:59:32;;;;;;;2.60;1.67;;;29.90;99.90;;;;;;8296456;28;20049;-82
2022/09/14 13:03:49;;;;;;;7.50;2.90;;;29.60;99.90;;;;;;8292891;28;20022;-82
2022/09/14 13:07:50;;;;;;;2.78;1.70;;;28.90;99.90;;;;;;8312112;28;20399;-81
2022/09/14 13:12:03;;;;;;;2.88;1.70;;;28.50;99.90;;;;;;8297271;28;20026;-82
2022/09/14 13:16:07;;;;;;;5.82;2.10;;;28.80;99.90;;;;;;8321456;28;20125;-82
2022/09/14 13:20:17;;;;;;;8.52;1.90;;;29.60;99.90;;;;;;8303376;28;20631;-82
2022/09/14 13:24:21;;;;;;;4.63;1.77;;;30.10;99.90;;;;;;8312498;28;20022;-81
2022/09/14 13:28:24;;;;;;;2.92;1.80;;;30.30;99.90;;;;;;8300542;28;20037;-82
2022/09/14 13:32:25;;;;;;;4.80;1.70;;;29.60;99.90;;;;;;8301591;28;20034;-80
2022/09/14 13:36:29;;;;;;;2.42;1.63;;;28.60;99.90;;;;;;8309932;28;20021;-81
2022/09/14 13:40:30;;;;;;;4.75;1.90;;;27.90;99.90;;;;;;8295457;28;20038;-81
2022/09/14 13:44:45;;;;;;;3.75;1.65;;;27.00;99.90;;;;;;8311388;28;20113;-82
2022/09/14 13:48:46;;;;;;;4.10;1.75;;;25.90;99.90;;;;;;8293802;28;20088;-82
2022/09/14 13:52:47;;;;;;;4.07;1.90;;;23.60;99.90;;;;;;8295966;28;20026;-80
2022/09/14 13:57:14;;;;;;;5.35;2.25;;;21.30;99.90;;;;;;8298847;28;20028;-81
2022/09/14 14:01:25;;;;;;;5.30;1.90;;;20.30;99.90;;;;;;8310466;28;20068;-81
2022/09/14 14:05:28;;;;;;;6.28;3.33;;;20.20;99.90;;;;;;8292399;28;20029;-82
2022/09/14 14:09:55;;;;;;;5.60;3.80;;;20.50;99.90;;;;;;8298865;28;20030;-83
2022/09/14 14:14:07;;;;;;;7.38;5.78;;;20.60;99.90;;;;;;8310985;28;20022;-82
2022/09/14 14:18:37;;;;;;;6.03;3.65;;;20.70;99.90;;;;;;8291733;28;20257;-81
2022/09/14 14:22:38;;;;;;;5.65;1.90;;;20.60;99.90;;;;;;8296701;28;20029;-82
2022/09/14 14:26:46;;;;;;;4.13;2.33;;;20.60;99.90;;;;;;8298941;28;20030;-82
2022/09/14 14:30:46;;;;;;;7.97;2.60;;;20.40;99.90;;;;;;8296411;28;20611;-81
2022/09/14 14:34:47;;;;;;;3.70;2.38;;;20.30;99.90;;;;;;8302213;28;20018;-81
2022/09/14 14:38:49;;;;;;;4.50;2.20;;;20.10;99.90;;;;;;8301883;28;20109;-82
2022/09/14 14:42:50;;;;;;;2.30;2.00;;;20.30;99.90;;;;;;8299158;28;20022;-81
2022/09/14 14:46:51;;;;;;;2.83;2.30;;;20.70;99.90;;;;;;8297644;28;20026;-82
2022/09/14 14:50:54;;;;;;;2.63;2.00;;;20.50;99.90;;;;;;8295428;28;20573;-81
2022/09/14 14:54:55;;;;;;;4.60;2.13;;;20.30;99.90;;;;;;8296134;28;20030;-81
2022/09/14 14:58:55;;;;;;;2.75;1.55;;;20.10;99.90;;;;;;8300006;28;20060;-82
2022/09/14 15:02:56;;;;;;;3.45;1.60;;;19.70;99.90;;;;;;8312788;28;20454;-81
2022/09/14 15:06:56;;;;;;;2.47;1.60;;;19.40;99.90;;;;;;8300888;28;20061;-82
2022/09/14 15:10:57;;;;;;;6.05;1.60;;;19.50;99.90;;;;;;8300524;28;20034;-83
2022/09/14 15:14:58;;;;;;;3.50;1.52;;;19.90;99.90;;;;;;8297010;28;20018;-83
2022/09/14 15:18:59;;;;;;;2.33;1.48;;;20.30;99.90;;;;;;8293539;28;20022;-82
2022/09/14 15:22:59;;;;;;;3.70;1.40;;;20.30;99.90;;;;;;8313824;28;20030;-82
2022/09/14 15:27:00;;;;;;;1.33;1.00;;;20.30;99.90;;;;;;8309045;28;20034;-82
2022/09/14 15:31:00;;;;;;;1.83;1.20;;;20.00;99.90;;;;;;8297532;28;20026;-82
2022/09/14 15:35:01;;;;;;;1.75;1.10;;;19.80;99.90;;;;;;8308795;28;20102;-83
2022/09/14 15:39:03;;;;;;;1.40;1.30;;;20.00;99.90;;;;;;8304663;28;20056;-83
2022/09/14 15:43:04;;;;;;;1.23;1.02;;;20.50;99.90;;;;;;8301304;28;20048;-82
2022/09/14 15:47:05;;;;;;;4.97;1.80;;;21.50;99.90;;;;;;8299680;28;20022;-82
2022/09/14 15:51:10;;;;;;;2.50;1.10;;;21.80;99.90;;;;;;8297157;28;20065;-82
2022/09/14 15:55:11;;;;;;;1.77;1.13;;;21.30;99.90;;;;;;8305563;28;20149;-82
2022/09/14 15:59:11;;;;;;;2.08;1.15;;;21.10;99.90;;;;;;8298971;28;20036;-82
2022/09/14 16:03:12;;;;;;;1.52;1.10;;;20.80;99.90;;;;;;8296637;28;20026;-82
2022/09/14 16:07:14;;;;;;;1.48;0.90;;;20.40;99.90;;;;;;8298610;28;20032;-89
2022/09/14 16:11:15;;;;;;;2.67;0.93;;;20.50;99.90;;;;;;8301336;28;20125;-89
2022/09/14 16:15:16;;;;;;;1.17;0.93;;;20.50;99.90;;;;;;8293418;28;20634;-89
2022/09/14 16:19:16;;;;;;;5.18;1.40;;;20.40;99.90;;;;;;8300575;28;20113;-89
2022/09/14 16:23:17;;;;;;;16.38;3.42;;;20.00;99.90;;;;;;8298288;28;20033;-82
2022/09/14 16:27:18;;;;;;;2.08;0.85;;;19.70;99.90;;;;;;8296499;28;20033;-82
2022/09/14 16:31:20;;;;;;;3.42;0.80;;;19.60;99.90;;;;;;8294972;28;20046;-82
2022/09/14 16:35:20;;;;;;;1.00;0.47;;;19.20;99.90;;;;;;8294436;28;20061;-82
2022/09/14 16:39:25;;;;;;;0.80;0.50;;;19.10;99.90;;;;;;8301656;23;20042;-91
2022/09/14 16:43:25;;;;;;;2.15;0.80;;;18.70;99.90;;;;;;8310453;28;20045;-90
2022/09/14 16:47:26;;;;;;;1.13;0.60;;;18.20;99.90;;;;;;8299478;28;20026;-91
2022/09/14 16:51:29;;;;;;;0.98;0.60;;;18.00;99.90;;;;;;8300037;28;20072;-92
2022/09/14 16:55:31;;;;;;;2.10;0.60;;;17.90;99.90;;;;;;8299030;28;20075;-91
2022/09/14 16:59:31;;;;;;;0.73;0.57;;;17.80;99.90;;;;;;8326673;28;20098;-96
2022/09/14 17:03:34;;;;;;;3.95;1.05;;;17.80;99.90;;;;;;8309662;28;20108;-91
2022/09/14 17:07:34;;;;;;;1.30;0.80;;;17.70;99.90;;;;;;8303491;28;20017;-91
2022/09/14 17:11:36;;;;;;;1.50;0.88;;;17.90;99.90;;;;;;8298377;28;20088;-91
2022/09/14 17:15:37;;;;;;;1.58;0.95;;;17.80;99.90;;;;;;8297994;28;20029;-92
2022/09/14 17:19:37;;;;;;;1.17;0.82;;;17.90;99.90;;;;;;8301479;28;20510;-91
2022/09/14 17:23:39;;;;;;;2.70;0.90;;;18.00;99.90;;;;;;8297280;28;20550;-91
2022/09/14 17:27:40;;;;;;;0.90;0.80;;;18.00;99.90;;;;;;8297305;28;20057;-91
2022/09/14 17:31:42;;;;;;;1.02;0.90;;;18.00;99.90;;;;;;8301939;28;20041;-91
2022/09/14 17:35:51;;;;;;;1.42;0.82;;;18.10;99.90;;;;;;8309625;28;20049;-92
2022/09/14 17:39:51;;;;;;;2.53;1.20;;;17.80;99.90;;;;;;8301786;28;20112;-91
2022/09/14 17:43:57;;;;;;;1.85;1.10;;;17.80;99.90;;;;;;8305350;28;20407;-91
2022/09/14 17:47:58;;;;;;;3.10;1.20;;;17.80;99.90;;;;;;8297012;28;20415;-91
2022/09/14 17:52:00;;;;;;;2.42;1.25;;;18.00;99.90;;;;;;8311600;28;20028;-90
2022/09/14 17:56:02;;;;;;;2.85;1.20;;;18.00;99.90;;;;;;8297208;28;20403;-91
2022/09/14 18:00:03;;;;;;;3.42;1.45;;;17.80;99.90;;;;;;8301178;28;20510;-90
2022/09/14 18:04:09;;;;;;;4.57;1.58;;;17.90;99.90;;;;;;8296109;28;20030;-90
2022/09/14 18:08:09;;;;;;;4.95;1.40;;;18.00;99.90;;;;;;8299693;28;20022;-90
2022/09/14 18:12:10;;;;;;;6.13;1.80;;;17.90;99.90;;;;;;8295647;28;20037;-91
2022/09/14 18:16:11;;;;;;;3.20;1.60;;;18.10;99.90;;;;;;8298957;28;20018;-91
2022/09/14 18:20:13;;;;;;;3.28;1.70;;;17.90;99.90;;;;;;8295327;28;20021;-90
2022/09/14 18:24:14;;;;;;;5.47;1.90;;;18.10;99.90;;;;;;8299292;28;20097;-91
2022/09/14 18:28:14;;;;;;;6.20;1.70;;;18.40;99.90;;;;;;8299984;28;20022;-91
2022/09/14 18:32:15;;;;;;;4.15;1.60;;;18.30;99.90;;;;;;8297891;28;20063;-91
2022/09/14 18:36:16;;;;;;;2.35;1.40;;;18.20;99.90;;;;;;8301203;28;20488;-91
2022/09/14 18:40:17;;;;;;;2.08;1.60;;;18.20;99.90;;;;;;8298462;28;20026;-91
2022/09/14 18:44:18;;;;;;;5.65;1.63;;;18.10;99.90;;;;;;8300567;28;20060;-90
2022/09/14 18:48:19;;;;;;;3.80;1.55;;;18.30;99.90;;;;;;8306545;28;20113;-90
2022/09/14 18:52:19;;;;;;;2.65;1.73;;;18.30;99.90;;;;;;8305344;28;20083;-91
2022/09/14 18:56:20;;;;;;;4.28;1.80;;;18.30;99.90;;;;;;8297901;28;20680;-91
2022/09/14 19:00:20;;;;;;;3.65;1.60;;;18.10;99.90;;;;;;8303100;28;20398;-91
2022/09/14 19:04:21;;;;;;;1.88;1.52;;;18.20;99.90;;;;;;8293574;28;20022;-91
2022/09/14 19:08:22;;;;;;;3.28;1.70;;;18.00;99.90;;;;;;8298898;28;20113;-90
2022/09/14 19:12:23;;;;;;;5.07;1.90;;;18.00;99.90;;;;;;8297744;28;20532;-91
2022/09/14 19:16:23;;;;;;;4.90;1.83;;;17.90;99.90;;;;;;8293475;28;20018;-91
2022/09/14 19:20:24;;;;;;;3.63;2.00;;;17.90;99.90;;;;;;8297186;28;20022;-91
2022/09/14 19:24:29;;;;;;;6.70;2.45;;;18.00;99.90;;;;;;8293308;28;20499;-91
2022/09/14 19:28:30;;;;;;;2.90;1.83;;;18.10;99.90;;;;;;8301623;28;20022;-91
2022/09/14 19:32:30;;;;;;;6.20;1.90;;;18.10;99.90;;;;;;8298361;28;20033;-91
2022/09/14 19:36:34;;;;;;;4.47;1.85;;;18.30;99.90;;;;;;8301541;28;20049;-91
2022/09/14 19:40:35;;;;;;;9.40;2.10;;;18.20;99.90;;;;;;8301328;28;20041;-91
2022/09/14 19:44:36;;;;;;;4.30;2.30;;;18.10;99.90;;;;;;8293276;28;20041;-91
2022/09/14 19:48:37;;;;;;;5.47;2.22;;;18.00;99.90;;;;;;8294431;28;20037;-91
2022/09/14 19:52:37;;;;;;;3.20;1.95;;;18.10;99.90;;;;;;8305261;28;20415;-91
2022/09/14 19:56:38;;;;;;;4.95;2.28;;;18.00;99.90;;;;;;8303435;28;20037;-91
2022/09/14 20:00:39;;;;;;;3.17;2.10;;;18.10;99.90;;;;;;8301039;28;20026;-91
2022/09/14 20:04:39;;;;;;;2.92;1.92;;;18.30;99.90;;;;;;8293877;28;20532;-91
2022/09/14 20:08:40;;;;;;;2.40;1.92;;;18.30;99.90;;;;;;8293825;28;20177;-91
2022/09/14 20:12:40;;;;;;;3.10;2.03;;;18.30;99.90;;;;;;8294845;28;20080;-91
2022/09/14 20:16:44;;;;;;;3.05;1.77;;;18.40;99.90;;;;;;8300074;28;20487;-91
2022/09/14 20:20:45;;;;;;;2.17;1.58;;;18.30;99.90;;;;;;8303259;28;20057;-91
2022/09/14 20:24:46;;;;;;;3.75;1.58;;;18.40;99.90;;;;;;8299692;28;20030;-90
2022/09/14 20:28:46;;;;;;;2.47;1.67;;;18.40;99.90;;;;;;8309519;28;20108;-91
2022/09/14 20:32:47;;;;;;;4.75;1.58;;;18.40;99.90;;;;;;8310637;28;20451;-91
2022/09/14 20:36:49;;;;;;;3.08;1.45;;;18.40;99.90;;;;;;8303595;28;20108;-91
2022/09/14 20:41:03;;;;;;;5.63;1.58;;;18.30;99.90;;;;;;8299461;28;20475;-91
2022/09/14 20:45:04;;;;;;;2.88;1.55;;;18.20;99.90;;;;;;8303804;28;20120;-91
2022/09/14 20:49:07;;;;;;;4.88;1.73;;;18.10;99.90;;;;;;8304627;28;20034;-91
2022/09/14 20:53:08;;;;;;;3.55;1.98;;;18.00;99.90;;;;;;8302669;28;20096;-91
2022/09/14 20:57:08;;;;;;;2.50;1.88;;;18.10;99.90;;;;;;8299982;28;20018;-91
2022/09/14 21:01:18;;;;;;;2.35;1.60;;;18.00;99.90;;;;;;8305521;28;20503;-91
2022/09/14 21:05:19;;;;;;;4.28;1.90;;;18.10;99.90;;;;;;8298790;28;20495;-91
2022/09/14 21:09:22;;;;;;;2.97;1.80;;;18.00;99.90;;;;;;8306188;28;20084;-91
2022/09/14 21:13:23;;;;;;;4.35;1.92;;;18.00;99.90;;;;;;8301884;28;20377;-92